sensor_id;sensor_type;location;lat;lon;timestamp;P1;durP1;ratioP1;P2;durP2;ratioP2
8482;SDS011;4278;42.668;23.312;2023-06-04T00:01:03;7.97;;;4.10;;
8482;SDS011;4278;42.668;23.312;2023-06-04T00:03:30;5.90;;;4.90;;
8482;SDS011;4278;42.668;23.312;2023-06-04T00:05:57;6.57;;;5.28;;
8482;SDS011;4278;42.668;23.312;2023-06-04T00:08:24;6.45;;;5.03;;
8482;SDS011;4278;42.668;23.312;2023-06-04T00:10:52;6.60;;;5.17;;
8482;SDS011;4278;42.668;23.312;2023-06-04T00:13:19;5.78;;;4.35;;
8482;SDS011;4278;42.668;23.312;2023-06-04T00:15:46;5.03;;;4.45;;
8482;SDS011;4278;42.668;23.312;2023-06-04T00:18:12;4.95;;;3.90;;
8482;SDS011;4278;42.668;23.312;2023-06-04T00:20:39;5.28;;;4.30;;
8482;SDS011;4278;42.668;23.312;2023-06-04T00:23:06;7.43;;;4.40;;
8482;SDS011;4278;42.668;23.312;2023-06-04T00:25:33;5.90;;;4.40;;
8482;SDS011;4278;42.668;23.312;2023-06-04T00:28:02;6.37;;;4.73;;
8482;SDS011;4278;42.668;23.312;2023-06-04T00:30:29;4.53;;;3.90;;
8482;SDS011;4278;42.668;23.312;2023-06-04T00:32:56;7.30;;;5.07;;
8482;SDS011;4278;42.668;23.312;2023-06-04T00:35:22;5.70;;;4.40;;
8482;SDS011;4278;42.668;23.312;2023-06-04T00:37:49;5.70;;;4.43;;
8482;SDS011;4278;42.668;23.312;2023-06-04T00:40:16;7.53;;;4.38;;
8482;SDS011;4278;42.668;23.312;2023-06-04T00:42:43;9.07;;;5.80;;
8482;SDS011;4278;42.668;23.312;2023-06-04T00:45:12;6.00;;;4.53;;
8482;SDS011;4278;42.668;23.312;2023-06-04T00:47:40;5.47;;;4.70;;
8482;SDS011;4278;42.668;23.312;2023-06-04T00:50:08;6.73;;;4.33;;
8482;SDS011;4278;42.668;23.312;2023-06-04T00:52:35;6.75;;;4.38;;
8482;SDS011;4278;42.668;23.312;2023-06-04T00:55:02;6.50;;;4.63;;
8482;SDS011;4278;42.668;23.312;2023-06-04T00:57:29;8.10;;;4.30;;
8482;SDS011;4278;42.668;23.312;2023-06-04T00:59:56;6.75;;;4.68;;
8482;SDS011;4278;42.668;23.312;2023-06-04T01:02:24;5.60;;;3.75;;
8482;SDS011;4278;42.668;23.312;2023-06-04T01:04:58;5.45;;;4.50;;
8482;SDS011;4278;42.668;23.312;2023-06-04T01:07:33;5.88;;;4.30;;
8482;SDS011;4278;42.668;23.312;2023-06-04T01:10:02;5.50;;;4.45;;
8482;SDS011;4278;42.668;23.312;2023-06-04T01:12:29;7.80;;;4.93;;
8482;SDS011;4278;42.668;23.312;2023-06-04T01:14:56;7.63;;;4.63;;
8482;SDS011;4278;42.668;23.312;2023-06-04T01:17:25;4.32;;;3.80;;
8482;SDS011;4278;42.668;23.312;2023-06-04T01:20:07;4.70;;;4.07;;
8482;SDS011;4278;42.668;23.312;2023-06-04T01:22:43;6.70;;;5.53;;
8482;SDS011;4278;42.668;23.312;2023-06-04T01:25:24;5.43;;;4.22;;
8482;SDS011;4278;42.668;23.312;2023-06-04T01:27:55;9.87;;;6.00;;
8482;SDS011;4278;42.668;23.312;2023-06-04T01:30:23;9.47;;;4.87;;
8482;SDS011;4278;42.668;23.312;2023-06-04T01:32:52;8.97;;;5.70;;
8482;SDS011;4278;42.668;23.312;2023-06-04T01:35:22;8.35;;;5.20;;
8482;SDS011;4278;42.668;23.312;2023-06-04T01:37:49;8.02;;;5.53;;
8482;SDS011;4278;42.668;23.312;2023-06-04T01:40:16;9.27;;;5.75;;
8482;SDS011;4278;42.668;23.312;2023-06-04T01:42:43;7.87;;;5.77;;
8482;SDS011;4278;42.668;23.312;2023-06-04T01:45:10;10.20;;;6.70;;
8482;SDS011;4278;42.668;23.312;2023-06-04T01:47:37;11.67;;;6.07;;
8482;SDS011;4278;42.668;23.312;2023-06-04T01:50:05;8.80;;;5.70;;
8482;SDS011;4278;42.668;23.312;2023-06-04T01:52:34;6.97;;;5.63;;
8482;SDS011;4278;42.668;23.312;2023-06-04T01:55:01;8.88;;;6.07;;
8482;SDS011;4278;42.668;23.312;2023-06-04T01:57:29;12.48;;;4.65;;
8482;SDS011;4278;42.668;23.312;2023-06-04T01:59:57;8.15;;;4.78;;
8482;SDS011;4278;42.668;23.312;2023-06-04T02:02:23;5.43;;;4.28;;
8482;SDS011;4278;42.668;23.312;2023-06-04T02:04:50;6.88;;;4.72;;
8482;SDS011;4278;42.668;23.312;2023-06-04T02:07:19;5.27;;;4.17;;
8482;SDS011;4278;42.668;23.312;2023-06-04T02:09:46;6.40;;;4.37;;
8482;SDS011;4278;42.668;23.312;2023-06-04T02:12:13;4.47;;;3.60;;
8482;SDS011;4278;42.668;23.312;2023-06-04T02:14:40;6.63;;;4.13;;
8482;SDS011;4278;42.668;23.312;2023-06-04T02:17:08;6.23;;;4.07;;
8482;SDS011;4278;42.668;23.312;2023-06-04T02:19:37;5.33;;;4.07;;
8482;SDS011;4278;42.668;23.312;2023-06-04T02:22:04;7.47;;;4.05;;
8482;SDS011;4278;42.668;23.312;2023-06-04T02:24:33;6.85;;;3.65;;
8482;SDS011;4278;42.668;23.312;2023-06-04T02:27:00;4.93;;;3.70;;
8482;SDS011;4278;42.668;23.312;2023-06-04T02:29:27;4.97;;;3.67;;
8482;SDS011;4278;42.668;23.312;2023-06-04T02:31:53;5.50;;;4.10;;
8482;SDS011;4278;42.668;23.312;2023-06-04T02:34:20;4.30;;;3.90;;
8482;SDS011;4278;42.668;23.312;2023-06-04T02:36:48;5.43;;;3.93;;
8482;SDS011;4278;42.668;23.312;2023-06-04T02:39:15;6.00;;;3.70;;
8482;SDS011;4278;42.668;23.312;2023-06-04T02:41:44;5.33;;;4.00;;
8482;SDS011;4278;42.668;23.312;2023-06-04T02:44:10;6.20;;;3.87;;
8482;SDS011;4278;42.668;23.312;2023-06-04T02:46:37;4.70;;;3.83;;
8482;SDS011;4278;42.668;23.312;2023-06-04T02:49:05;5.80;;;3.93;;
8482;SDS011;4278;42.668;23.312;2023-06-04T02:51:32;5.47;;;4.10;;
8482;SDS011;4278;42.668;23.312;2023-06-04T02:53:58;6.13;;;5.00;;
8482;SDS011;4278;42.668;23.312;2023-06-04T02:56:26;5.00;;;4.10;;
8482;SDS011;4278;42.668;23.312;2023-06-04T02:58:54;7.87;;;4.40;;
8482;SDS011;4278;42.668;23.312;2023-06-04T03:01:21;9.20;;;4.93;;
8482;SDS011;4278;42.668;23.312;2023-06-04T03:03:49;7.67;;;4.53;;
8482;SDS011;4278;42.668;23.312;2023-06-04T03:06:16;7.03;;;4.23;;
8482;SDS011;4278;42.668;23.312;2023-06-04T03:08:45;6.77;;;4.67;;
8482;SDS011;4278;42.668;23.312;2023-06-04T03:11:12;5.37;;;4.33;;
8482;SDS011;4278;42.668;23.312;2023-06-04T03:13:40;6.47;;;3.97;;
8482;SDS011;4278;42.668;23.312;2023-06-04T03:16:08;6.90;;;4.17;;
8482;SDS011;4278;42.668;23.312;2023-06-04T03:18:35;5.50;;;4.23;;
8482;SDS011;4278;42.668;23.312;2023-06-04T03:21:02;4.83;;;4.07;;
8482;SDS011;4278;42.668;23.312;2023-06-04T03:23:29;5.87;;;4.43;;
8482;SDS011;4278;42.668;23.312;2023-06-04T03:25:56;6.40;;;4.77;;
8482;SDS011;4278;42.668;23.312;2023-06-04T03:28:23;5.37;;;4.37;;
8482;SDS011;4278;42.668;23.312;2023-06-04T03:30:50;6.23;;;4.60;;
8482;SDS011;4278;42.668;23.312;2023-06-04T03:33:20;6.27;;;4.27;;
8482;SDS011;4278;42.668;23.312;2023-06-04T03:35:46;7.10;;;4.43;;
8482;SDS011;4278;42.668;23.312;2023-06-04T03:38:14;6.57;;;4.40;;
8482;SDS011;4278;42.668;23.312;2023-06-04T03:40:41;5.87;;;4.30;;
8482;SDS011;4278;42.668;23.312;2023-06-04T03:43:08;7.43;;;4.65;;
8482;SDS011;4278;42.668;23.312;2023-06-04T03:45:36;6.43;;;3.92;;
8482;SDS011;4278;42.668;23.312;2023-06-04T03:48:02;5.53;;;4.37;;
8482;SDS011;4278;42.668;23.312;2023-06-04T03:50:31;6.15;;;4.07;;
8482;SDS011;4278;42.668;23.312;2023-06-04T03:52:58;6.18;;;4.63;;
8482;SDS011;4278;42.668;23.312;2023-06-04T03:55:25;5.65;;;3.72;;
8482;SDS011;4278;42.668;23.312;2023-06-04T03:57:52;8.40;;;4.73;;
8482;SDS011;4278;42.668;23.312;2023-06-04T04:00:18;5.43;;;4.22;;
8482;SDS011;4278;42.668;23.312;2023-06-04T04:02:46;7.68;;;4.20;;
8482;SDS011;4278;42.668;23.312;2023-06-04T04:05:14;4.17;;;3.70;;
8482;SDS011;4278;42.668;23.312;2023-06-04T04:07:43;5.87;;;4.37;;
8482;SDS011;4278;42.668;23.312;2023-06-04T04:10:10;6.65;;;4.35;;
8482;SDS011;4278;42.668;23.312;2023-06-04T04:12:37;5.25;;;3.88;;
8482;SDS011;4278;42.668;23.312;2023-06-04T04:15:04;6.25;;;4.53;;
8482;SDS011;4278;42.668;23.312;2023-06-04T04:17:31;7.05;;;4.25;;
8482;SDS011;4278;42.668;23.312;2023-06-04T04:19:58;6.07;;;4.63;;
8482;SDS011;4278;42.668;23.312;2023-06-04T04:22:25;5.00;;;3.90;;
8482;SDS011;4278;42.668;23.312;2023-06-04T04:24:53;7.22;;;4.43;;
8482;SDS011;4278;42.668;23.312;2023-06-04T04:27:20;4.10;;;3.70;;
8482;SDS011;4278;42.668;23.312;2023-06-04T04:29:48;7.50;;;4.93;;
8482;SDS011;4278;42.668;23.312;2023-06-04T04:32:15;5.80;;;4.17;;
8482;SDS011;4278;42.668;23.312;2023-06-04T04:34:50;5.63;;;4.50;;
8482;SDS011;4278;42.668;23.312;2023-06-04T04:37:19;6.38;;;4.07;;
8482;SDS011;4278;42.668;23.312;2023-06-04T04:39:47;7.60;;;5.07;;
8482;SDS011;4278;42.668;23.312;2023-06-04T04:42:18;5.55;;;4.50;;
8482;SDS011;4278;42.668;23.312;2023-06-04T04:44:45;5.97;;;4.63;;
8482;SDS011;4278;42.668;23.312;2023-06-04T04:47:14;6.03;;;5.10;;
8482;SDS011;4278;42.668;23.312;2023-06-04T04:49:41;10.13;;;5.18;;
8482;SDS011;4278;42.668;23.312;2023-06-04T04:52:08;4.75;;;3.85;;
8482;SDS011;4278;42.668;23.312;2023-06-04T04:54:34;6.13;;;4.30;;
8482;SDS011;4278;42.668;23.312;2023-06-04T04:57:01;8.23;;;4.38;;
8482;SDS011;4278;42.668;23.312;2023-06-04T04:59:29;6.90;;;5.03;;
8482;SDS011;4278;42.668;23.312;2023-06-04T05:01:56;8.27;;;5.40;;
8482;SDS011;4278;42.668;23.312;2023-06-04T05:04:23;7.97;;;4.75;;
8482;SDS011;4278;42.668;23.312;2023-06-04T05:06:50;11.75;;;5.70;;
8482;SDS011;4278;42.668;23.312;2023-06-04T05:09:16;5.68;;;4.78;;
8482;SDS011;4278;42.668;23.312;2023-06-04T05:11:43;9.20;;;4.70;;
8482;SDS011;4278;42.668;23.312;2023-06-04T05:14:10;5.88;;;4.65;;
8482;SDS011;4278;42.668;23.312;2023-06-04T05:16:38;7.40;;;4.90;;
8482;SDS011;4278;42.668;23.312;2023-06-04T05:19:06;7.60;;;5.65;;
8482;SDS011;4278;42.668;23.312;2023-06-04T05:21:33;7.25;;;5.07;;
8482;SDS011;4278;42.668;23.312;2023-06-04T05:24:02;8.55;;;6.13;;
8482;SDS011;4278;42.668;23.312;2023-06-04T05:26:28;8.05;;;5.00;;
8482;SDS011;4278;42.668;23.312;2023-06-04T05:28:55;7.40;;;5.40;;
8482;SDS011;4278;42.668;23.312;2023-06-04T05:31:23;8.43;;;5.10;;
8482;SDS011;4278;42.668;23.312;2023-06-04T05:33:53;9.15;;;5.72;;
8482;SDS011;4278;42.668;23.312;2023-06-04T05:36:20;6.63;;;4.70;;
8482;SDS011;4278;42.668;23.312;2023-06-04T05:38:46;7.70;;;6.03;;
8482;SDS011;4278;42.668;23.312;2023-06-04T05:41:13;8.40;;;5.60;;
8482;SDS011;4278;42.668;23.312;2023-06-04T05:43:40;7.78;;;5.55;;
8482;SDS011;4278;42.668;23.312;2023-06-04T05:46:09;13.48;;;5.75;;
8482;SDS011;4278;42.668;23.312;2023-06-04T05:48:36;10.50;;;5.55;;
8482;SDS011;4278;42.668;23.312;2023-06-04T05:51:04;7.32;;;5.75;;
8482;SDS011;4278;42.668;23.312;2023-06-04T05:53:33;8.38;;;5.60;;
8482;SDS011;4278;42.668;23.312;2023-06-04T05:56:00;11.02;;;6.20;;
8482;SDS011;4278;42.668;23.312;2023-06-04T05:58:27;11.88;;;6.32;;
8482;SDS011;4278;42.668;23.312;2023-06-04T06:00:54;10.82;;;6.28;;
8482;SDS011;4278;42.668;23.312;2023-06-04T06:03:21;10.85;;;6.70;;
8482;SDS011;4278;42.668;23.312;2023-06-04T06:05:47;9.68;;;7.07;;
8482;SDS011;4278;42.668;23.312;2023-06-04T06:08:16;8.88;;;6.45;;
8482;SDS011;4278;42.668;23.312;2023-06-04T06:10:42;12.65;;;6.65;;
8482;SDS011;4278;42.668;23.312;2023-06-04T06:13:09;10.55;;;6.88;;
8482;SDS011;4278;42.668;23.312;2023-06-04T06:15:36;10.43;;;6.93;;
8482;SDS011;4278;42.668;23.312;2023-06-04T06:18:03;13.10;;;7.50;;
8482;SDS011;4278;42.668;23.312;2023-06-04T06:20:30;8.02;;;6.03;;
8482;SDS011;4278;42.668;23.312;2023-06-04T06:22:57;13.07;;;7.80;;
8482;SDS011;4278;42.668;23.312;2023-06-04T06:25:25;11.95;;;6.07;;
8482;SDS011;4278;42.668;23.312;2023-06-04T06:27:52;10.95;;;7.32;;
8482;SDS011;4278;42.668;23.312;2023-06-04T06:30:19;9.15;;;5.88;;
8482;SDS011;4278;42.668;23.312;2023-06-04T06:32:45;13.23;;;6.53;;
8482;SDS011;4278;42.668;23.312;2023-06-04T06:35:13;9.57;;;5.78;;
8482;SDS011;4278;42.668;23.312;2023-06-04T06:37:43;10.60;;;5.70;;
8482;SDS011;4278;42.668;23.312;2023-06-04T06:40:10;9.05;;;5.55;;
8482;SDS011;4278;42.668;23.312;2023-06-04T06:42:38;8.32;;;6.35;;
8482;SDS011;4278;42.668;23.312;2023-06-04T06:45:06;8.10;;;6.32;;
8482;SDS011;4278;42.668;23.312;2023-06-04T06:47:33;14.15;;;6.30;;
8482;SDS011;4278;42.668;23.312;2023-06-04T06:50:00;9.70;;;6.63;;
8482;SDS011;4278;42.668;23.312;2023-06-04T06:52:26;10.57;;;5.60;;
8482;SDS011;4278;42.668;23.312;2023-06-04T06:54:53;14.55;;;6.32;;
8482;SDS011;4278;42.668;23.312;2023-06-04T06:57:20;9.57;;;5.82;;
8482;SDS011;4278;42.668;23.312;2023-06-04T06:59:48;10.48;;;6.65;;
8482;SDS011;4278;42.668;23.312;2023-06-04T07:02:17;7.95;;;4.95;;
8482;SDS011;4278;42.668;23.312;2023-06-04T07:04:43;8.77;;;5.47;;
8482;SDS011;4278;42.668;23.312;2023-06-04T07:07:10;10.00;;;5.88;;
8482;SDS011;4278;42.668;23.312;2023-06-04T07:09:37;8.20;;;5.35;;
8482;SDS011;4278;42.668;23.312;2023-06-04T07:12:04;9.23;;;5.47;;
8482;SDS011;4278;42.668;23.312;2023-06-04T07:14:32;9.45;;;5.60;;
8482;SDS011;4278;42.668;23.312;2023-06-04T07:17:00;6.72;;;5.30;;
8482;SDS011;4278;42.668;23.312;2023-06-04T07:19:27;10.65;;;5.70;;
8482;SDS011;4278;42.668;23.312;2023-06-04T07:21:54;8.85;;;5.90;;
8482;SDS011;4278;42.668;23.312;2023-06-04T07:24:21;8.57;;;5.65;;
8482;SDS011;4278;42.668;23.312;2023-06-04T07:26:48;11.43;;;6.90;;
8482;SDS011;4278;42.668;23.312;2023-06-04T07:29:15;8.93;;;5.70;;
8482;SDS011;4278;42.668;23.312;2023-06-04T07:31:42;10.00;;;6.15;;
8482;SDS011;4278;42.668;23.312;2023-06-04T07:34:11;9.20;;;5.72;;
8482;SDS011;4278;42.668;23.312;2023-06-04T07:36:38;8.93;;;6.07;;
8482;SDS011;4278;42.668;23.312;2023-06-04T07:39:05;8.18;;;5.93;;
8482;SDS011;4278;42.668;23.312;2023-06-04T07:41:31;9.57;;;5.53;;
8482;SDS011;4278;42.668;23.312;2023-06-04T07:43:58;8.65;;;6.05;;
8482;SDS011;4278;42.668;23.312;2023-06-04T07:46:25;7.05;;;5.28;;
8482;SDS011;4278;42.668;23.312;2023-06-04T07:48:53;11.27;;;6.40;;
8482;SDS011;4278;42.668;23.312;2023-06-04T07:51:21;10.45;;;6.57;;
8482;SDS011;4278;42.668;23.312;2023-06-04T07:53:48;9.75;;;6.45;;
8482;SDS011;4278;42.668;23.312;2023-06-04T07:56:15;11.88;;;6.45;;
8482;SDS011;4278;42.668;23.312;2023-06-04T07:58:41;9.00;;;6.28;;
8482;SDS011;4278;42.668;23.312;2023-06-04T08:01:10;11.32;;;6.65;;
8482;SDS011;4278;42.668;23.312;2023-06-04T08:03:37;9.45;;;6.13;;
8482;SDS011;4278;42.668;23.312;2023-06-04T08:06:05;9.63;;;6.30;;
8482;SDS011;4278;42.668;23.312;2023-06-04T08:08:33;8.45;;;5.57;;
8482;SDS011;4278;42.668;23.312;2023-06-04T08:11:00;10.60;;;5.78;;
8482;SDS011;4278;42.668;23.312;2023-06-04T08:13:27;9.77;;;5.80;;
8482;SDS011;4278;42.668;23.312;2023-06-04T08:15:54;10.40;;;6.97;;
8482;SDS011;4278;42.668;23.312;2023-06-04T08:18:21;7.93;;;5.82;;
8482;SDS011;4278;42.668;23.312;2023-06-04T08:20:48;10.32;;;6.80;;
8482;SDS011;4278;42.668;23.312;2023-06-04T08:23:15;10.80;;;7.10;;
8482;SDS011;4278;42.668;23.312;2023-06-04T08:25:43;12.18;;;7.68;;
8482;SDS011;4278;42.668;23.312;2023-06-04T08:28:10;11.52;;;6.80;;
8482;SDS011;4278;42.668;23.312;2023-06-04T08:30:36;10.57;;;7.10;;
8482;SDS011;4278;42.668;23.312;2023-06-04T08:33:03;10.32;;;7.47;;
8482;SDS011;4278;42.668;23.312;2023-06-04T08:35:30;10.27;;;7.05;;
8482;SDS011;4278;42.668;23.312;2023-06-04T08:37:57;13.10;;;7.85;;
8482;SDS011;4278;42.668;23.312;2023-06-04T08:40:24;10.13;;;7.70;;
8482;SDS011;4278;42.668;23.312;2023-06-04T08:42:54;11.88;;;7.65;;
8482;SDS011;4278;42.668;23.312;2023-06-04T08:45:24;11.15;;;7.55;;
8482;SDS011;4278;42.668;23.312;2023-06-04T08:47:52;10.75;;;7.00;;
8482;SDS011;4278;42.668;23.312;2023-06-04T08:50:20;12.50;;;6.90;;
8482;SDS011;4278;42.668;23.312;2023-06-04T08:52:49;9.18;;;6.57;;
8482;SDS011;4278;42.668;23.312;2023-06-04T08:55:19;10.73;;;6.75;;
8482;SDS011;4278;42.668;23.312;2023-06-04T08:57:47;11.32;;;7.30;;
8482;SDS011;4278;42.668;23.312;2023-06-04T09:00:18;11.00;;;7.07;;
8482;SDS011;4278;42.668;23.312;2023-06-04T09:02:46;9.55;;;7.30;;
8482;SDS011;4278;42.668;23.312;2023-06-04T09:05:16;11.00;;;7.15;;
8482;SDS011;4278;42.668;23.312;2023-06-04T09:07:46;10.55;;;6.97;;
8482;SDS011;4278;42.668;23.312;2023-06-04T09:10:15;11.32;;;7.00;;
8482;SDS011;4278;42.668;23.312;2023-06-04T09:12:46;7.70;;;6.60;;
8482;SDS011;4278;42.668;23.312;2023-06-04T09:15:14;10.57;;;6.97;;
8482;SDS011;4278;42.668;23.312;2023-06-04T09:17:42;11.20;;;7.68;;
8482;SDS011;4278;42.668;23.312;2023-06-04T09:20:18;10.02;;;6.90;;
8482;SDS011;4278;42.668;23.312;2023-06-04T09:22:45;13.77;;;7.15;;
8482;SDS011;4278;42.668;23.312;2023-06-04T09:25:18;12.65;;;7.18;;
8482;SDS011;4278;42.668;23.312;2023-06-04T09:27:46;14.07;;;7.45;;
8482;SDS011;4278;42.668;23.312;2023-06-04T09:30:13;9.57;;;7.07;;
8482;SDS011;4278;42.668;23.312;2023-06-04T09:32:41;12.48;;;7.47;;
8482;SDS011;4278;42.668;23.312;2023-06-04T09:35:09;10.82;;;8.05;;
8482;SDS011;4278;42.668;23.312;2023-06-04T09:37:37;9.75;;;6.88;;
8482;SDS011;4278;42.668;23.312;2023-06-04T09:40:05;14.50;;;7.75;;
8482;SDS011;4278;42.668;23.312;2023-06-04T09:42:41;13.02;;;8.15;;
8482;SDS011;4278;42.668;23.312;2023-06-04T09:45:09;11.73;;;7.30;;
8482;SDS011;4278;42.668;23.312;2023-06-04T09:47:41;12.95;;;7.55;;
8482;SDS011;4278;42.668;23.312;2023-06-04T09:50:09;11.35;;;8.23;;
8482;SDS011;4278;42.668;23.312;2023-06-04T09:52:37;12.95;;;7.75;;
8482;SDS011;4278;42.668;23.312;2023-06-04T09:55:14;13.52;;;7.82;;
8482;SDS011;4278;42.668;23.312;2023-06-04T09:57:44;12.85;;;7.90;;
8482;SDS011;4278;42.668;23.312;2023-06-04T10:00:12;14.48;;;8.02;;
8482;SDS011;4278;42.668;23.312;2023-06-04T10:02:44;14.32;;;8.63;;
8482;SDS011;4278;42.668;23.312;2023-06-04T10:05:12;12.77;;;8.45;;
8482;SDS011;4278;42.668;23.312;2023-06-04T10:07:40;10.90;;;8.20;;
8482;SDS011;4278;42.668;23.312;2023-06-04T10:10:10;10.18;;;6.82;;
8482;SDS011;4278;42.668;23.312;2023-06-04T10:12:41;11.90;;;7.28;;
8482;SDS011;4278;42.668;23.312;2023-06-04T10:15:10;11.30;;;7.55;;
8482;SDS011;4278;42.668;23.312;2023-06-04T10:17:37;10.68;;;6.47;;
8482;SDS011;4278;42.668;23.312;2023-06-04T10:20:07;7.97;;;6.40;;
8482;SDS011;4278;42.668;23.312;2023-06-04T10:22:35;9.30;;;6.55;;
8482;SDS011;4278;42.668;23.312;2023-06-04T10:25:03;10.13;;;6.60;;
8482;SDS011;4278;42.668;23.312;2023-06-04T10:27:30;9.68;;;6.78;;
8482;SDS011;4278;42.668;23.312;2023-06-04T10:30:00;8.25;;;6.30;;
8482;SDS011;4278;42.668;23.312;2023-06-04T10:32:29;8.77;;;6.60;;
8482;SDS011;4278;42.668;23.312;2023-06-04T10:34:56;10.50;;;6.18;;
8482;SDS011;4278;42.668;23.312;2023-06-04T10:37:25;8.40;;;6.18;;
8482;SDS011;4278;42.668;23.312;2023-06-04T10:39:54;8.98;;;7.10;;
8482;SDS011;4278;42.668;23.312;2023-06-04T10:42:22;12.27;;;6.70;;
8482;SDS011;4278;42.668;23.312;2023-06-04T10:44:51;8.07;;;6.32;;
8482;SDS011;4278;42.668;23.312;2023-06-04T10:47:19;9.93;;;6.97;;
8482;SDS011;4278;42.668;23.312;2023-06-04T10:49:47;9.07;;;6.25;;
8482;SDS011;4278;42.668;23.312;2023-06-04T10:52:14;9.98;;;8.20;;
8482;SDS011;4278;42.668;23.312;2023-06-04T10:54:43;10.98;;;6.55;;
8482;SDS011;4278;42.668;23.312;2023-06-04T10:57:12;8.82;;;6.28;;
8482;SDS011;4278;42.668;23.312;2023-06-04T10:59:39;10.48;;;6.57;;
8482;SDS011;4278;42.668;23.312;2023-06-04T11:02:06;12.73;;;6.65;;
8482;SDS011;4278;42.668;23.312;2023-06-04T11:04:34;11.32;;;6.50;;
8482;SDS011;4278;42.668;23.312;2023-06-04T11:07:03;11.70;;;6.40;;
8482;SDS011;4278;42.668;23.312;2023-06-04T11:09:34;9.32;;;6.35;;
8482;SDS011;4278;42.668;23.312;2023-06-04T11:12:04;9.48;;;7.07;;
8482;SDS011;4278;42.668;23.312;2023-06-04T11:14:32;10.85;;;6.47;;
8482;SDS011;4278;42.668;23.312;2023-06-04T11:17:08;12.63;;;7.03;;
8482;SDS011;4278;42.668;23.312;2023-06-04T11:19:36;8.50;;;6.13;;
8482;SDS011;4278;42.668;23.312;2023-06-04T11:22:03;8.82;;;6.78;;
8482;SDS011;4278;42.668;23.312;2023-06-04T11:24:30;10.02;;;6.88;;
8482;SDS011;4278;42.668;23.312;2023-06-04T11:26:58;11.63;;;7.88;;
8482;SDS011;4278;42.668;23.312;2023-06-04T11:29:27;12.65;;;7.25;;
8482;SDS011;4278;42.668;23.312;2023-06-04T11:31:54;13.95;;;6.95;;
8482;SDS011;4278;42.668;23.312;2023-06-04T11:34:22;8.60;;;7.13;;
8482;SDS011;4278;42.668;23.312;2023-06-04T11:36:49;7.72;;;6.82;;
8482;SDS011;4278;42.668;23.312;2023-06-04T11:39:18;9.20;;;7.40;;
8482;SDS011;4278;42.668;23.312;2023-06-04T11:41:45;12.00;;;7.78;;
8482;SDS011;4278;42.668;23.312;2023-06-04T11:44:13;11.77;;;7.57;;
8482;SDS011;4278;42.668;23.312;2023-06-04T11:46:42;9.68;;;7.40;;
8482;SDS011;4278;42.668;23.312;2023-06-04T11:49:11;9.93;;;7.15;;
8482;SDS011;4278;42.668;23.312;2023-06-04T11:51:44;9.35;;;6.90;;
8482;SDS011;4278;42.668;23.312;2023-06-04T11:54:12;9.10;;;7.55;;
8482;SDS011;4278;42.668;23.312;2023-06-04T11:56:40;12.20;;;7.07;;
8482;SDS011;4278;42.668;23.312;2023-06-04T11:59:09;8.32;;;6.88;;
8482;SDS011;4278;42.668;23.312;2023-06-04T12:01:38;11.27;;;7.10;;
8482;SDS011;4278;42.668;23.312;2023-06-04T12:04:12;11.63;;;8.30;;
8482;SDS011;4278;42.668;23.312;2023-06-04T12:06:50;12.68;;;8.20;;
8482;SDS011;4278;42.668;23.312;2023-06-04T12:09:21;11.38;;;7.72;;
8482;SDS011;4278;42.668;23.312;2023-06-04T12:11:48;10.30;;;8.48;;
8482;SDS011;4278;42.668;23.312;2023-06-04T12:14:16;11.50;;;7.95;;
8482;SDS011;4278;42.668;23.312;2023-06-04T12:16:44;14.20;;;8.20;;
8482;SDS011;4278;42.668;23.312;2023-06-04T12:19:22;10.68;;;8.27;;
8482;SDS011;4278;42.668;23.312;2023-06-04T12:21:58;12.05;;;7.97;;
8482;SDS011;4278;42.668;23.312;2023-06-04T12:24:27;9.27;;;7.97;;
8482;SDS011;4278;42.668;23.312;2023-06-04T12:27:02;14.27;;;8.57;;
8482;SDS011;4278;42.668;23.312;2023-06-04T12:29:29;10.75;;;8.32;;
8482;SDS011;4278;42.668;23.312;2023-06-04T12:32:03;10.00;;;8.07;;
8482;SDS011;4278;42.668;23.312;2023-06-04T12:34:34;12.27;;;8.40;;
8482;SDS011;4278;42.668;23.312;2023-06-04T12:37:01;9.32;;;8.40;;
8482;SDS011;4278;42.668;23.312;2023-06-04T12:39:31;11.55;;;9.23;;
8482;SDS011;4278;42.668;23.312;2023-06-04T12:41:58;10.57;;;8.77;;
8482;SDS011;4278;42.668;23.312;2023-06-04T12:44:24;13.88;;;8.00;;
8482;SDS011;4278;42.668;23.312;2023-06-04T12:46:51;11.25;;;8.50;;
8482;SDS011;4278;42.668;23.312;2023-06-04T12:49:18;13.13;;;8.85;;
8482;SDS011;4278;42.668;23.312;2023-06-04T12:51:47;11.88;;;8.60;;
8482;SDS011;4278;42.668;23.312;2023-06-04T12:54:14;12.60;;;7.90;;
8482;SDS011;4278;42.668;23.312;2023-06-04T12:56:41;11.05;;;8.25;;
8482;SDS011;4278;42.668;23.312;2023-06-04T12:59:09;11.70;;;7.80;;
8482;SDS011;4278;42.668;23.312;2023-06-04T13:01:36;11.40;;;7.75;;
8482;SDS011;4278;42.668;23.312;2023-06-04T13:04:03;8.80;;;7.80;;
8482;SDS011;4278;42.668;23.312;2023-06-04T13:06:30;11.13;;;7.95;;
8482;SDS011;4278;42.668;23.312;2023-06-04T13:08:58;11.57;;;9.00;;
8482;SDS011;4278;42.668;23.312;2023-06-04T13:11:25;12.48;;;10.15;;
8482;SDS011;4278;42.668;23.312;2023-06-04T13:13:52;14.60;;;9.65;;
8482;SDS011;4278;42.668;23.312;2023-06-04T13:16:19;10.23;;;9.13;;
8482;SDS011;4278;42.668;23.312;2023-06-04T13:18:46;10.80;;;8.55;;
8482;SDS011;4278;42.668;23.312;2023-06-04T13:21:13;10.70;;;7.43;;
8482;SDS011;4278;42.668;23.312;2023-06-04T13:23:39;11.70;;;8.00;;
8482;SDS011;4278;42.668;23.312;2023-06-04T13:26:08;12.38;;;7.22;;
8482;SDS011;4278;42.668;23.312;2023-06-04T13:28:34;9.57;;;6.72;;
8482;SDS011;4278;42.668;23.312;2023-06-04T13:31:01;9.85;;;7.35;;
8482;SDS011;4278;42.668;23.312;2023-06-04T13:33:28;9.18;;;6.40;;
8482;SDS011;4278;42.668;23.312;2023-06-04T13:35:55;9.00;;;7.45;;
8482;SDS011;4278;42.668;23.312;2023-06-04T13:38:22;9.95;;;6.65;;
8482;SDS011;4278;42.668;23.312;2023-06-04T13:40:49;13.23;;;7.07;;
8482;SDS011;4278;42.668;23.312;2023-06-04T13:43:17;7.25;;;6.47;;
8482;SDS011;4278;42.668;23.312;2023-06-04T13:45:44;7.90;;;6.03;;
8482;SDS011;4278;42.668;23.312;2023-06-04T13:48:11;8.15;;;6.95;;
8482;SDS011;4278;42.668;23.312;2023-06-04T13:50:37;8.25;;;6.70;;
8482;SDS011;4278;42.668;23.312;2023-06-04T13:53:04;11.55;;;7.00;;
8482;SDS011;4278;42.668;23.312;2023-06-04T13:55:31;9.75;;;7.38;;
8482;SDS011;4278;42.668;23.312;2023-06-04T13:57:58;8.93;;;7.30;;
8482;SDS011;4278;42.668;23.312;2023-06-04T14:00:26;8.27;;;7.28;;
8482;SDS011;4278;42.668;23.312;2023-06-04T14:02:55;12.05;;;6.78;;
8482;SDS011;4278;42.668;23.312;2023-06-04T14:05:24;8.20;;;6.30;;
8482;SDS011;4278;42.668;23.312;2023-06-04T14:07:52;8.85;;;7.22;;
8482;SDS011;4278;42.668;23.312;2023-06-04T14:10:19;7.65;;;6.85;;
8482;SDS011;4278;42.668;23.312;2023-06-04T14:12:46;8.20;;;6.97;;
8482;SDS011;4278;42.668;23.312;2023-06-04T14:15:13;10.27;;;6.80;;
8482;SDS011;4278;42.668;23.312;2023-06-04T14:17:41;9.05;;;6.72;;
8482;SDS011;4278;42.668;23.312;2023-06-04T14:20:08;8.70;;;6.25;;
8482;SDS011;4278;42.668;23.312;2023-06-04T14:22:36;8.80;;;6.82;;
8482;SDS011;4278;42.668;23.312;2023-06-04T14:25:03;14.27;;;7.63;;
8482;SDS011;4278;42.668;23.312;2023-06-04T14:27:30;10.25;;;7.65;;
8482;SDS011;4278;42.668;23.312;2023-06-04T14:29:57;8.40;;;7.22;;
8482;SDS011;4278;42.668;23.312;2023-06-04T14:32:24;13.52;;;7.35;;
8482;SDS011;4278;42.668;23.312;2023-06-04T14:34:53;8.75;;;6.95;;
8482;SDS011;4278;42.668;23.312;2023-06-04T14:37:20;12.38;;;8.48;;
8482;SDS011;4278;42.668;23.312;2023-06-04T14:39:47;10.70;;;7.55;;
8482;SDS011;4278;42.668;23.312;2023-06-04T14:42:14;9.50;;;6.95;;
8482;SDS011;4278;42.668;23.312;2023-06-04T14:44:41;8.70;;;6.95;;
8482;SDS011;4278;42.668;23.312;2023-06-04T14:47:08;11.00;;;7.70;;
8482;SDS011;4278;42.668;23.312;2023-06-04T14:49:34;10.07;;;7.03;;
8482;SDS011;4278;42.668;23.312;2023-06-04T14:52:03;12.15;;;6.78;;
8482;SDS011;4278;42.668;23.312;2023-06-04T14:54:30;10.30;;;7.60;;
8482;SDS011;4278;42.668;23.312;2023-06-04T14:56:57;9.55;;;7.05;;
8482;SDS011;4278;42.668;23.312;2023-06-04T14:59:24;9.27;;;6.90;;